createdAt,value
2022-07-30T00:00:24.853Z,0.60
2022-07-30T00:03:04.273Z,0.50
2022-07-30T00:05:31.358Z,0.88
2022-07-30T00:07:58.458Z,0.50
2022-07-30T00:10:25.562Z,0.73
2022-07-30T00:12:52.548Z,0.52
2022-07-30T00:15:19.755Z,0.60
2022-07-30T00:17:47.130Z,0.60
2022-07-30T00:20:16.945Z,0.52
2022-07-30T00:22:45.666Z,0.60
2022-07-30T00:25:12.689Z,0.55
2022-07-30T00:27:40.032Z,0.52
2022-07-30T00:30:07.646Z,0.50
2022-07-30T00:32:34.550Z,1.35
2022-07-30T00:35:01.471Z,0.65
2022-07-30T00:37:28.536Z,0.55
2022-07-30T00:39:55.603Z,1.10
2022-07-30T00:42:25.918Z,0.40
2022-07-30T00:44:53.545Z,0.32
2022-07-30T00:47:21.097Z,0.60
2022-07-30T00:49:48.085Z,0.90
2022-07-30T00:52:15.134Z,0.50
2022-07-30T00:54:42.146Z,0.40
2022-07-30T00:57:09.043Z,0.65
2022-07-30T00:59:36.322Z,0.82
2022-07-30T01:02:03.613Z,0.50
2022-07-30T01:04:31.159Z,0.47
2022-07-30T01:06:58.633Z,0.40
2022-07-30T01:09:25.714Z,0.40
2022-07-30T01:11:52.682Z,0.60
2022-07-30T01:14:19.878Z,0.77
2022-07-30T01:16:46.934Z,2.15
2022-07-30T01:19:49.288Z,0.90
2022-07-30T01:22:30.870Z,0.63
2022-07-30T01:25:04.228Z,1.10
2022-07-30T01:27:51.830Z,0.63
2022-07-30T01:30:22.551Z,0.80
2022-07-30T01:32:51.513Z,0.65
2022-07-30T01:35:21.794Z,0.50
2022-07-30T01:37:49.531Z,0.52
2022-07-30T01:40:16.959Z,0.80
2022-07-30T01:42:46.978Z,0.70
2022-07-30T01:45:15.823Z,1.17
2022-07-30T01:47:45.293Z,0.63
2022-07-30T01:50:14.234Z,0.60
2022-07-30T01:52:47.545Z,0.73
2022-07-30T01:55:21.710Z,0.75
2022-07-30T01:57:49.694Z,0.60
2022-07-30T02:00:17.729Z,0.85
2022-07-30T02:02:45.802Z,0.60
2022-07-30T02:05:13.141Z,1.10
2022-07-30T02:07:52.395Z,0.70
2022-07-30T02:10:52.285Z,0.60
2022-07-30T02:13:22.663Z,0.68
2022-07-30T02:15:56.385Z,0.80
2022-07-30T02:18:47.542Z,0.77
2022-07-30T02:21:19.384Z,0.60
2022-07-30T02:23:49.327Z,0.50
2022-07-30T02:26:22.508Z,0.77
2022-07-30T02:31:23.097Z,1.13
2022-07-30T02:33:53.524Z,0.70
2022-07-30T02:39:19.856Z,0.80
2022-07-30T02:41:50.018Z,0.75
2022-07-30T02:44:21.033Z,0.60
2022-07-30T02:46:50.996Z,1.25
2022-07-30T02:49:20.547Z,0.95
2022-07-30T02:51:49.344Z,0.98
2022-07-30T02:54:19.754Z,1.35
2022-07-30T02:56:49.523Z,1.20
2022-07-30T02:59:18.360Z,1.20
2022-07-30T03:01:47.793Z,0.98
2022-07-30T03:04:16.318Z,1.10
2022-07-30T03:06:45.172Z,1.00
2022-07-30T03:09:13.000Z,1.13
2022-07-30T03:11:44.923Z,1.38
2022-07-30T03:14:11.930Z,1.30
2022-07-30T03:16:43.103Z,1.08
2022-07-30T03:19:11.617Z,0.95
2022-07-30T03:21:39.799Z,1.13
2022-07-30T03:24:09.148Z,1.63
2022-07-30T03:26:37.446Z,1.70
2022-07-30T03:29:05.231Z,1.50
2022-07-30T03:31:36.283Z,1.70
2022-07-30T03:34:07.071Z,1.48
2022-07-30T03:36:36.718Z,1.80
2022-07-30T03:39:05.430Z,1.98
2022-07-30T03:41:33.640Z,2.03
2022-07-30T03:44:01.710Z,1.67
2022-07-30T03:46:29.706Z,2.33
2022-07-30T03:48:57.914Z,2.58
2022-07-30T03:51:25.507Z,2.47
2022-07-30T03:54:00.804Z,2.00
2022-07-30T03:56:28.074Z,1.90
2022-07-30T03:58:55.140Z,2.33
2022-07-30T04:01:26.410Z,1.75
2022-07-30T04:03:53.696Z,2.10
2022-07-30T04:06:20.782Z,1.73
2022-07-30T04:08:47.658Z,2.67
2022-07-30T04:11:14.927Z,2.55
2022-07-30T04:13:41.846Z,2.35
2022-07-30T04:16:39.362Z,1.80
2022-07-30T04:19:09.630Z,1.80
2022-07-30T04:21:37.718Z,2.22
2022-07-30T04:24:05.876Z,1.88
2022-07-30T04:26:36.164Z,1.83
2022-07-30T04:29:05.858Z,2.05
2022-07-30T04:31:40.463Z,2.10
2022-07-30T04:34:12.531Z,2.00
2022-07-30T04:36:40.518Z,1.83
2022-07-30T04:39:08.227Z,2.28
2022-07-30T04:41:48.875Z,1.85
2022-07-30T04:44:19.036Z,2.08
2022-07-30T04:46:47.777Z,1.80
2022-07-30T04:49:17.825Z,1.77
2022-07-30T04:51:46.471Z,1.90
2022-07-30T04:54:15.467Z,2.00
2022-07-30T04:56:52.553Z,1.85
2022-07-30T04:59:25.248Z,1.70
2022-07-30T05:01:55.360Z,1.50
2022-07-30T05:04:24.366Z,1.70
2022-07-30T05:06:53.794Z,1.33
2022-07-30T05:09:21.346Z,1.98
2022-07-30T05:11:55.890Z,1.80
2022-07-30T05:14:23.992Z,1.25
2022-07-30T05:16:52.868Z,1.65
2022-07-30T05:19:20.660Z,1.65
2022-07-30T05:21:48.100Z,1.60
2022-07-30T05:24:16.357Z,1.75
2022-07-30T05:26:43.733Z,1.20
2022-07-30T05:29:19.621Z,1.33
2022-07-30T05:31:47.846Z,1.38
2022-07-30T05:34:15.034Z,1.30
2022-07-30T05:36:42.833Z,1.63
2022-07-30T05:39:09.930Z,1.30
2022-07-30T05:41:36.809Z,0.82
2022-07-30T05:44:03.726Z,1.17
2022-07-30T05:46:31.407Z,1.23
2022-07-30T05:48:58.569Z,1.20
2022-07-30T05:51:25.715Z,1.15
2022-07-30T05:53:52.898Z,1.60
2022-07-30T05:56:19.797Z,1.25
2022-07-30T05:58:46.696Z,1.55
2022-07-30T06:01:13.897Z,1.23
2022-07-30T06:03:40.890Z,1.27
2022-07-30T06:06:08.241Z,1.23
2022-07-30T06:08:35.762Z,1.30
2022-07-30T06:11:02.939Z,1.77
2022-07-30T06:13:29.958Z,1.25
2022-07-30T06:15:57.181Z,1.65
2022-07-30T06:18:24.148Z,1.40
2022-07-30T06:20:52.401Z,1.27
2022-07-30T06:23:23.475Z,1.20
2022-07-30T06:25:51.117Z,1.10
2022-07-30T06:28:36.958Z,1.30
2022-07-30T06:31:05.036Z,1.92
2022-07-30T06:33:32.087Z,1.15
2022-07-30T06:35:59.187Z,1.23
2022-07-30T06:38:26.353Z,1.42
2022-07-30T06:40:53.445Z,1.13
2022-07-30T06:43:21.354Z,1.40
2022-07-30T06:45:48.517Z,1.35
2022-07-30T06:48:15.465Z,1.20
2022-07-30T06:50:42.575Z,1.52
2022-07-30T06:53:09.731Z,1.90
2022-07-30T06:55:36.734Z,1.35
2022-07-30T06:58:03.915Z,1.50
2022-07-30T07:00:31.546Z,1.10
2022-07-30T07:02:58.471Z,1.35
2022-07-30T07:05:28.896Z,1.25
2022-07-30T07:07:59.583Z,1.00
2022-07-30T07:10:27.434Z,1.10
2022-07-30T07:12:54.973Z,1.58
2022-07-30T07:15:36.212Z,1.23
2022-07-30T07:18:05.022Z,1.50
2022-07-30T07:20:35.741Z,1.05
2022-07-30T07:23:06.717Z,1.35
2022-07-30T07:25:36.809Z,1.42
2022-07-30T07:28:12.324Z,2.17
2022-07-30T07:30:41.756Z,1.20
2022-07-30T07:33:10.706Z,1.27
2022-07-30T07:35:48.334Z,1.10
2022-07-30T07:38:18.535Z,1.23
2022-07-30T07:40:46.472Z,1.08
2022-07-30T07:43:14.711Z,1.00
2022-07-30T07:45:43.432Z,1.02
2022-07-30T07:48:10.483Z,1.25
2022-07-30T07:50:37.475Z,1.00
2022-07-30T07:53:05.186Z,1.17
2022-07-30T07:55:33.633Z,1.15
2022-07-30T07:58:00.906Z,1.30
2022-07-30T08:00:28.759Z,1.33
2022-07-30T08:02:56.419Z,0.98
2022-07-30T08:05:23.709Z,1.10
2022-07-30T08:07:50.874Z,1.20
2022-07-30T08:10:18.863Z,0.90
2022-07-30T08:12:45.760Z,1.20
2022-07-30T08:15:13.466Z,1.20
2022-07-30T08:17:45.335Z,0.90
2022-07-30T08:20:13.537Z,1.25
2022-07-30T08:22:41.331Z,1.02
2022-07-30T08:25:09.068Z,1.27
2022-07-30T08:27:36.307Z,1.00
2022-07-30T08:30:05.594Z,1.02
2022-07-30T08:32:32.667Z,1.65
2022-07-30T08:34:59.605Z,0.98
2022-07-30T08:37:27.137Z,1.23
2022-07-30T08:39:54.116Z,1.30
2022-07-30T08:42:22.502Z,1.48
2022-07-30T08:44:52.310Z,1.40
2022-07-30T08:47:23.567Z,1.27
2022-07-30T08:49:51.090Z,1.20
2022-07-30T08:52:19.724Z,1.48
2022-07-30T08:54:47.002Z,1.27
2022-07-30T08:57:15.149Z,1.42
2022-07-30T08:59:59.445Z,1.00
2022-07-30T09:02:31.293Z,1.20
2022-07-30T09:04:58.694Z,1.08
2022-07-30T09:07:25.636Z,1.40
2022-07-30T09:09:52.817Z,1.20
2022-07-30T09:12:35.696Z,1.30
2022-07-30T09:15:08.692Z,1.05
2022-07-30T09:17:55.695Z,1.20
2022-07-30T09:20:28.297Z,1.27
2022-07-30T09:22:57.990Z,1.25
2022-07-30T09:25:45.953Z,0.73
2022-07-30T09:28:16.752Z,1.50
2022-07-30T09:30:45.552Z,1.17
2022-07-30T09:33:13.394Z,1.38
2022-07-30T09:35:41.676Z,1.30
2022-07-30T09:38:09.446Z,1.02
2022-07-30T09:40:36.713Z,1.00
2022-07-30T09:43:10.917Z,1.30
2022-07-30T09:45:56.809Z,1.13
2022-07-30T09:48:28.220Z,1.30
2022-07-30T09:50:57.650Z,0.90
2022-07-30T09:53:25.156Z,1.05
2022-07-30T09:55:52.247Z,0.98
2022-07-30T09:58:26.923Z,1.42
2022-07-30T10:01:01.191Z,1.10
2022-07-30T10:03:33.789Z,1.38
2022-07-30T10:06:11.631Z,1.35
2022-07-30T10:08:39.099Z,1.13
2022-07-30T10:11:07.114Z,1.08
2022-07-30T10:13:39.273Z,1.17
2022-07-30T10:16:08.175Z,1.30
2022-07-30T10:18:36.332Z,1.10
2022-07-30T10:21:05.504Z,1.13
2022-07-30T10:23:34.562Z,1.00
2022-07-30T10:26:03.814Z,1.80
2022-07-30T10:28:34.650Z,1.23
2022-07-30T10:31:08.331Z,1.05
2022-07-30T10:33:53.080Z,1.38
2022-07-30T10:36:23.863Z,1.10
2022-07-30T10:38:53.070Z,1.10
2022-07-30T10:42:02.407Z,1.23
2022-07-30T10:44:54.197Z,1.20
2022-07-30T10:47:29.863Z,1.15
2022-07-30T10:50:22.252Z,1.30
2022-07-30T10:52:51.261Z,1.52
2022-07-30T10:55:38.847Z,1.60
2022-07-30T10:58:09.297Z,1.65
2022-07-30T11:00:59.724Z,1.17
2022-07-30T11:03:41.731Z,1.60
2022-07-30T11:06:15.336Z,1.92
2022-07-30T11:08:48.556Z,1.35
2022-07-30T11:12:02.226Z,1.67
2022-07-30T11:14:08.598Z,1.13
2022-07-30T11:16:37.110Z,1.58
2022-07-30T11:19:53.146Z,1.35
2022-07-30T11:22:31.709Z,1.65
2022-07-30T11:25:00.236Z,1.42
2022-07-30T11:27:48.911Z,1.50
2022-07-30T11:30:17.258Z,1.50
2022-07-30T11:32:52.399Z,1.85
2022-07-30T11:35:34.430Z,2.20
2022-07-30T11:38:22.212Z,1.60
2022-07-30T11:40:49.451Z,1.92
2022-07-30T11:43:19.630Z,1.50
2022-07-30T11:45:49.247Z,2.00
2022-07-30T11:48:18.338Z,2.20
2022-07-30T11:50:47.457Z,1.85
2022-07-30T11:53:17.869Z,1.60
2022-07-30T11:55:50.759Z,1.88
2022-07-30T11:58:33.919Z,2.05
2022-07-30T12:01:03.608Z,2.25
2022-07-30T12:03:40.905Z,2.50
2022-07-30T12:06:10.023Z,1.77
2022-07-30T12:08:44.430Z,1.77
2022-07-30T12:11:11.981Z,1.77
2022-07-30T12:13:43.820Z,1.80
2022-07-30T12:16:18.310Z,1.73
2022-07-30T12:21:16.035Z,2.45
2022-07-30T12:23:53.436Z,1.98
2022-07-30T12:26:22.697Z,1.88
2022-07-30T12:28:49.872Z,2.00
2022-07-30T12:31:17.497Z,2.03
2022-07-30T12:33:45.060Z,1.92
2022-07-30T12:36:25.267Z,2.22
2022-07-30T12:38:54.494Z,1.80
2022-07-30T12:41:22.523Z,2.53
2022-07-30T12:43:54.579Z,2.13
2022-07-30T12:46:24.477Z,2.30
2022-07-30T12:48:58.686Z,1.80
2022-07-30T12:51:57.464Z,2.03
2022-07-30T12:54:28.058Z,2.00
2022-07-30T12:57:03.002Z,2.22
2022-07-30T12:59:31.587Z,2.63
2022-07-30T13:02:03.467Z,1.95
2022-07-30T13:04:32.869Z,2.38
2022-07-30T13:07:06.511Z,2.30
2022-07-30T13:09:33.726Z,1.90
2022-07-30T13:12:00.928Z,2.20
2022-07-30T13:14:28.498Z,2.33
2022-07-30T13:16:56.905Z,2.10
2022-07-30T13:19:24.653Z,2.28
2022-07-30T13:21:51.813Z,1.88
2022-07-30T13:24:19.775Z,2.20
2022-07-30T13:26:47.243Z,2.08
2022-07-30T13:29:14.330Z,2.65
2022-07-30T13:31:42.824Z,2.22
2022-07-30T13:34:12.007Z,3.20
2022-07-30T13:36:39.456Z,2.10
2022-07-30T13:39:06.487Z,2.58
2022-07-30T13:41:36.229Z,2.45
2022-07-30T13:44:04.390Z,2.42
2022-07-30T13:46:31.298Z,2.55
2022-07-30T13:48:58.356Z,2.10
2022-07-30T13:51:25.957Z,2.20
2022-07-30T13:53:53.068Z,2.30
2022-07-30T13:56:20.078Z,2.30
2022-07-30T13:58:48.121Z,2.50
2022-07-30T14:01:17.467Z,2.35
2022-07-30T14:03:49.412Z,2.20
2022-07-30T14:06:20.078Z,1.90
2022-07-30T14:08:47.278Z,1.85
2022-07-30T14:11:14.327Z,2.83
2022-07-30T14:13:41.772Z,2.78
2022-07-30T14:16:22.994Z,2.38
2022-07-30T14:18:57.530Z,2.45
2022-07-30T14:21:24.930Z,2.25
2022-07-30T14:23:51.808Z,2.30
2022-07-30T14:26:18.991Z,2.60
2022-07-30T14:28:45.977Z,2.60
2022-07-30T14:31:12.874Z,2.22
2022-07-30T14:33:40.276Z,1.83
2022-07-30T14:36:07.280Z,1.83
2022-07-30T14:38:34.165Z,1.60
2022-07-30T14:41:01.560Z,1.90
2022-07-30T14:43:28.442Z,1.77
2022-07-30T14:45:55.418Z,2.00
2022-07-30T14:48:22.534Z,2.47
2022-07-30T14:51:12.066Z,2.22
2022-07-30T14:53:36.711Z,1.83
2022-07-30T14:56:04.290Z,1.73
2022-07-30T14:58:31.187Z,3.58
2022-07-30T15:00:58.389Z,1.85
2022-07-30T15:03:25.977Z,2.13
2022-07-30T15:05:53.098Z,1.80
2022-07-30T15:08:21.251Z,1.83
2022-07-30T15:10:48.185Z,2.20
2022-07-30T15:13:15.915Z,2.00
2022-07-30T15:15:45.926Z,2.00
2022-07-30T15:18:13.405Z,2.08
2022-07-30T15:20:40.640Z,2.00
2022-07-30T15:23:13.093Z,2.67
2022-07-30T15:25:41.900Z,2.65
2022-07-30T15:28:09.301Z,2.58
2022-07-30T15:30:36.705Z,3.05
2022-07-30T15:33:03.676Z,3.03
2022-07-30T15:35:31.721Z,2.83
2022-07-30T15:37:59.445Z,2.67
2022-07-30T15:40:26.397Z,2.90
2022-07-30T15:42:53.799Z,3.22
2022-07-30T15:45:22.349Z,2.70
2022-07-30T15:47:49.293Z,3.67
2022-07-30T15:50:17.396Z,3.35
2022-07-30T15:52:45.106Z,2.85
2022-07-30T15:55:12.365Z,4.45
2022-07-30T15:57:40.529Z,26.00
2022-07-30T16:00:09.229Z,31.40
2022-07-30T16:02:37.286Z,11.38
2022-07-30T16:05:05.536Z,4.80
2022-07-30T16:07:35.608Z,3.13
2022-07-30T16:10:02.666Z,3.10
2022-07-30T16:12:29.764Z,2.80
2022-07-30T16:14:56.652Z,2.88
2022-07-30T16:17:23.567Z,3.53
2022-07-30T16:19:50.882Z,3.10
2022-07-30T16:22:22.230Z,3.10
2022-07-30T16:24:51.186Z,3.78
2022-07-30T16:27:18.668Z,3.38
2022-07-30T16:29:45.536Z,4.47
2022-07-30T16:32:12.945Z,4.95
2022-07-30T16:34:39.818Z,4.22
2022-07-30T16:37:06.802Z,5.10
2022-07-30T16:39:33.850Z,5.45
2022-07-30T16:42:01.207Z,5.05
2022-07-30T16:44:31.608Z,5.13
2022-07-30T16:46:58.727Z,5.53
2022-07-30T16:49:26.255Z,5.38
2022-07-30T16:51:54.153Z,4.80
2022-07-30T16:54:21.535Z,4.97
2022-07-30T16:56:52.707Z,4.65
2022-07-30T16:59:22.998Z,5.43
2022-07-30T17:01:50.266Z,5.57
2022-07-30T17:04:17.699Z,5.60
2022-07-30T17:06:44.782Z,6.50
2022-07-30T17:09:15.777Z,6.97
2022-07-30T17:11:47.281Z,7.53
2022-07-30T17:14:22.255Z,7.95
2022-07-30T17:16:49.548Z,7.47
2022-07-30T17:19:16.436Z,6.80
2022-07-30T17:21:43.533Z,7.85
2022-07-30T17:24:13.777Z,7.45
2022-07-30T17:26:43.567Z,7.93
2022-07-30T17:29:14.405Z,7.47
2022-07-30T17:31:44.226Z,7.82
2022-07-30T17:34:14.054Z,8.20
2022-07-30T17:36:51.538Z,8.27
2022-07-30T17:40:22.956Z,7.80
2022-07-30T17:42:07.498Z,7.82
2022-07-30T17:44:35.517Z,8.40
2022-07-30T17:47:03.191Z,8.73
2022-07-30T17:49:30.342Z,9.88
2022-07-30T17:51:57.538Z,10.65
2022-07-30T17:54:24.473Z,6.70
2022-07-30T17:56:51.409Z,8.43
2022-07-30T17:59:19.755Z,8.25
2022-07-30T18:01:46.638Z,9.13
2022-07-30T18:04:13.640Z,8.80
2022-07-30T18:06:42.320Z,8.18
2022-07-30T18:09:09.362Z,6.97
2022-07-30T18:11:36.276Z,7.68
2022-07-30T18:14:03.955Z,7.30
2022-07-30T18:16:30.805Z,6.70
2022-07-30T18:18:57.702Z,6.25
2022-07-30T18:21:25.093Z,7.05
2022-07-30T18:23:52.107Z,6.07
2022-07-30T18:26:19.009Z,6.32
2022-07-30T18:28:48.712Z,6.25
2022-07-30T18:31:15.590Z,6.90
2022-07-30T18:33:42.674Z,7.20
2022-07-30T18:36:11.196Z,7.97
2022-07-30T18:38:38.728Z,7.97
2022-07-30T18:41:05.662Z,6.97
2022-07-30T18:43:47.769Z,7.25
2022-07-30T18:46:15.852Z,8.30
2022-07-30T18:48:43.228Z,8.07
2022-07-30T18:51:13.816Z,7.70
2022-07-30T18:53:41.652Z,8.20
2022-07-30T18:56:09.366Z,7.82
2022-07-30T18:58:37.990Z,7.65
2022-07-30T19:01:05.487Z,7.43
2022-07-30T19:03:32.619Z,8.65
2022-07-30T19:05:59.549Z,8.05
2022-07-30T19:08:26.503Z,8.23
2022-07-30T19:10:54.634Z,7.30
2022-07-30T19:13:23.561Z,8.00
2022-07-30T19:15:51.065Z,7.85
2022-07-30T19:18:18.166Z,7.32
2022-07-30T19:20:45.297Z,8.73
2022-07-30T19:23:13.614Z,7.65
2022-07-30T19:25:40.964Z,7.47
2022-07-30T19:28:08.116Z,7.38
2022-07-30T19:30:35.006Z,8.38
2022-07-30T19:33:12.604Z,14.73
2022-07-30T19:35:41.939Z,24.42
2022-07-30T19:38:09.772Z,25.30
2022-07-30T19:40:39.487Z,27.08
2022-07-30T19:45:54.068Z,23.88
2022-07-30T19:48:29.105Z,23.67
2022-07-30T19:50:58.910Z,23.25
2022-07-30T19:53:26.619Z,22.05
2022-07-30T19:55:55.046Z,21.05
2022-07-30T19:58:22.573Z,23.52
2022-07-30T20:00:51.914Z,31.77
2022-07-30T20:03:25.745Z,31.70
2022-07-30T20:05:57.154Z,27.33
2022-07-30T20:10:57.780Z,15.73
2022-07-30T20:13:44.001Z,13.23
2022-07-30T20:16:17.836Z,10.55
2022-07-30T20:18:45.943Z,11.07
2022-07-30T20:21:16.429Z,9.73
2022-07-30T20:23:44.938Z,8.15
2022-07-30T20:26:14.811Z,8.52
2022-07-30T20:28:45.672Z,7.65
2022-07-30T20:31:13.808Z,9.50
2022-07-30T20:33:42.312Z,8.43
2022-07-30T20:36:10.091Z,7.78
2022-07-30T20:38:38.727Z,8.63
2022-07-30T20:41:10.137Z,7.68
2022-07-30T20:43:54.802Z,8.60
2022-07-30T20:49:09.664Z,8.20
2022-07-30T20:51:37.518Z,7.78
2022-07-30T20:54:04.667Z,8.10
2022-07-30T20:56:32.008Z,8.70
2022-07-30T20:58:59.486Z,8.25
2022-07-30T21:01:28.617Z,8.63
2022-07-30T21:03:57.925Z,8.32
2022-07-30T21:06:26.259Z,8.65
2022-07-30T21:08:55.261Z,8.32
2022-07-30T21:11:23.841Z,7.60
2022-07-30T21:13:50.816Z,8.23
2022-07-30T21:16:21.430Z,8.23
2022-07-30T21:18:49.993Z,9.82
2022-07-30T21:21:30.711Z,8.75
2022-07-30T21:24:06.508Z,8.82
2022-07-30T21:26:42.136Z,9.65
2022-07-30T21:29:09.893Z,10.55
2022-07-30T21:31:58.070Z,10.75
2022-07-30T21:34:26.018Z,11.43
2022-07-30T21:36:54.015Z,11.95
2022-07-30T21:39:28.771Z,13.02
2022-07-30T21:41:57.068Z,14.18
2022-07-30T21:44:24.395Z,11.90
2022-07-30T21:46:52.360Z,10.45
2022-07-30T21:49:21.177Z,11.48
2022-07-30T21:51:48.290Z,11.13
2022-07-30T21:54:28.872Z,10.40
2022-07-30T21:56:58.382Z,11.07
2022-07-30T21:59:27.585Z,10.52
2022-07-30T22:01:55.776Z,10.27
2022-07-30T22:04:23.210Z,11.55
2022-07-30T22:06:51.382Z,12.02
2022-07-30T22:09:34.122Z,11.57
2022-07-30T22:12:09.122Z,10.73
2022-07-30T22:14:37.574Z,10.20
2022-07-30T22:17:05.000Z,11.13
2022-07-30T22:19:32.440Z,10.55
2022-07-30T22:22:03.585Z,11.25
2022-07-30T22:24:47.006Z,10.05
2022-07-30T22:27:14.715Z,11.25
2022-07-30T22:29:43.054Z,10.90
2022-07-30T22:32:11.523Z,11.65
2022-07-30T22:34:38.466Z,9.70
2022-07-30T22:37:09.237Z,10.25
2022-07-30T22:39:50.750Z,10.20
2022-07-30T22:42:20.177Z,10.27
2022-07-30T22:44:48.354Z,10.82
2022-07-30T22:47:21.134Z,10.38
2022-07-30T22:49:55.284Z,9.25
2022-07-30T22:52:25.443Z,10.10
2022-07-30T22:54:54.750Z,9.48
2022-07-30T22:57:23.414Z,10.15
2022-07-30T23:00:00.184Z,9.75
2022-07-30T23:02:28.119Z,10.35
2022-07-30T23:04:56.258Z,10.20
2022-07-30T23:07:23.763Z,10.00
2022-07-30T23:10:17.006Z,10.82
2022-07-30T23:12:16.652Z,27.42
2022-07-30T23:12:18.530Z,7.45
2022-07-30T23:12:47.804Z,10.95
2022-07-30T23:15:15.452Z,9.88
2022-07-30T23:17:43.464Z,9.90
2022-07-30T23:20:14.937Z,11.15
2022-07-30T23:22:42.131Z,10.23
2022-07-30T23:25:10.898Z,9.32
2022-07-30T23:27:38.302Z,10.57
2022-07-30T23:30:07.263Z,10.35
2022-07-30T23:32:34.323Z,10.20
2022-07-30T23:35:01.231Z,9.35
2022-07-30T23:37:28.484Z,9.57
2022-07-30T23:40:06.789Z,9.18
2022-07-30T23:42:34.083Z,9.43
2022-07-30T23:45:01.101Z,8.85
2022-07-30T23:47:57.298Z,9.27
2022-07-30T23:50:17.922Z,8.40
2022-07-30T23:52:45.693Z,8.50
2022-07-30T23:55:12.646Z,9.00
2022-07-30T23:57:39.724Z,8.73
